Time;durP1;ratioP1;P1;durP2;ratioP2;P2;SDS_P1;SDS_P2;PMS_P1;PMS_P2;Temp;Humidity;BMP_temperature;BMP_pressure;BME280_temperature;BME280_humidity;BME280_pressure;Samples;Min_cycle;Max_cycle;Signal;HPM_P1;HPM_P2
2023/01/11 00:00:08;;;;;;;11.57;7.60;;;;;;;15.36;48.55;93644.31;5012291;28;20046;-86
2023/01/11 00:02:34;;;;;;;11.90;8.10;;;;;;;15.34;49.25;93642.09;4992021;28;20052;-87
2023/01/11 00:04:59;;;;;;;11.15;7.50;;;;;;;15.36;48.91;93638.88;5023192;28;20046;-87
2023/01/11 00:07:25;;;;;;;10.23;7.47;;;;;;;15.38;49.14;93642.59;4999084;28;20111;-86
2023/01/11 00:09:50;;;;;;;10.27;7.32;;;;;;;15.39;48.94;93635.16;5005226;28;20057;-86
2023/01/11 00:12:16;;;;;;;12.88;7.57;;;;;;;15.41;48.96;93635.41;4991896;28;20053;-86
2023/01/11 00:14:41;;;;;;;12.43;8.10;;;;;;;15.34;49.12;93631.19;4989227;28;20073;-87
2023/01/11 00:17:07;;;;;;;8.73;7.00;;;;;;;15.40;48.88;93642.09;4996546;28;20034;-86
2023/01/11 00:19:32;;;;;;;10.65;7.43;;;;;;;15.36;49.18;93634.19;5012332;28;20286;-86
2023/01/11 00:22:00;;;;;;;10.82;7.95;;;;;;;15.38;49.04;93641.84;5026857;28;20037;-86
2023/01/11 00:24:26;;;;;;;11.52;7.70;;;;;;;15.31;49.27;93636.84;4993462;28;20119;-86
2023/01/11 00:26:51;;;;;;;11.20;8.18;;;;;;;15.35;49.23;93629.22;4996356;28;20037;-86
2023/01/11 00:29:16;;;;;;;13.73;7.80;;;;;;;15.37;49.06;93626.75;5004836;28;20124;-85
2023/01/11 00:31:42;;;;;;;13.00;7.43;;;;;;;15.36;48.78;93628.72;5004069;28;20041;-86
2023/01/11 00:34:07;;;;;;;8.80;7.00;;;;;;;15.37;49.36;93622.03;5006330;28;20080;-86
2023/01/11 00:36:33;;;;;;;11.48;6.82;;;;;;;15.35;49.09;93623.75;4967253;28;20046;-88
2023/01/11 00:39:00;;;;;;;12.20;7.40;;;;;;;15.37;49.18;93615.84;5025068;28;20401;-86
2023/01/11 00:49:38;;;;;;;10.15;6.78;;;;;;;15.33;49.15;93601.72;4988269;28;20116;-86
2023/01/11 00:52:08;;;;;;;9.43;6.57;;;;;;;15.37;48.92;93604.97;4990173;28;20050;-86
2023/01/11 00:54:37;;;;;;;11.82;6.88;;;;;;;15.36;48.86;93603.47;5006248;28;20040;-86
2023/01/11 00:57:03;;;;;;;8.77;6.00;;;;;;;15.38;48.84;93600.97;4997947;28;20041;-88
2023/01/11 00:59:28;;;;;;;7.88;6.28;;;;;;;15.35;49.09;93601.97;5014579;28;20030;-86
2023/01/11 01:01:54;;;;;;;9.50;6.75;;;;;;;15.33;48.88;93599.72;5016983;28;20042;-86
2023/01/11 01:04:19;;;;;;;10.48;6.18;;;;;;;15.33;49.09;93609.88;5005418;28;20038;-86
2023/01/11 01:06:45;;;;;;;9.30;6.75;;;;;;;15.34;49.14;93603.94;5023405;28;20053;-86
2023/01/11 01:09:10;;;;;;;8.30;6.50;;;;;;;15.32;48.85;93600.97;5015435;28;20053;-91
2023/01/11 01:11:35;;;;;;;9.43;6.53;;;;;;;15.36;48.78;93601.50;5014028;28;20033;-87
2023/01/11 01:16:46;;;;;;;10.40;6.63;;;;;;;15.31;48.87;93607.63;5007257;28;20069;-87
2023/01/11 01:19:12;;;;;;;10.20;5.97;;;;;;;15.32;49.04;93608.38;5009853;28;20042;-86
2023/01/11 01:21:38;;;;;;;9.77;6.00;;;;;;;15.36;49.02;93598.75;5003440;28;20172;-86
2023/01/11 01:24:03;;;;;;;8.55;5.85;;;;;;;15.36;49.10;93603.47;4990273;28;20129;-86
2023/01/11 01:26:29;;;;;;;7.15;5.07;;;;;;;15.35;49.00;93597.28;5009627;28;20109;-86
2023/01/11 01:28:54;;;;;;;10.30;6.50;;;;;;;15.40;48.89;93584.91;4989598;28;20042;-85
2023/01/11 01:31:20;;;;;;;8.82;5.65;;;;;;;15.41;48.90;93591.84;5015492;28;20046;-85
2023/01/11 01:33:45;;;;;;;7.90;6.43;;;;;;;15.32;48.98;93587.34;5008459;28;20047;-86
2023/01/11 01:36:11;;;;;;;10.48;5.20;;;;;;;15.40;48.80;93593.06;4986820;28;20026;-86
2023/01/11 01:38:36;;;;;;;7.65;5.60;;;;;;;15.41;49.00;93591.84;5006298;28;20041;-86
2023/01/11 01:41:03;;;;;;;7.82;5.38;;;;;;;15.40;48.93;93604.72;5027751;28;20092;-85
2023/01/11 01:43:49;;;;;;;8.82;5.30;;;;;;;15.38;48.73;93595.53;4978153;28;20046;-86
2023/01/11 01:46:15;;;;;;;9.70;5.68;;;;;;;15.39;48.81;93592.31;5019615;28;20057;-86
2023/01/11 01:48:40;;;;;;;10.38;5.78;;;;;;;15.35;48.92;93600.00;5005991;28;20534;-87
2023/01/11 01:51:06;;;;;;;8.30;5.75;;;;;;;15.38;49.02;93598.25;4988816;28;20121;-86
2023/01/11 01:53:35;;;;;;;6.95;5.43;;;;;;;15.34;48.79;93592.31;4986402;28;20038;-86
2023/01/11 01:56:03;;;;;;;7.20;5.50;;;;;;;15.31;48.86;93594.03;5002410;28;20042;-86
2023/01/11 01:58:33;;;;;;;7.88;5.03;;;;;;;15.33;49.10;93583.38;4979314;28;20046;-86
2023/01/11 02:01:45;;;;;;;7.55;4.88;;;;;;;15.36;48.71;93576.22;4990374;28;20096;-87
2023/01/11 02:03:46;;;;;;;9.00;5.10;;;;;;;15.37;48.81;93581.16;5018767;28;20124;-87
2023/01/11 02:06:12;;;;;;;9.88;5.90;;;;;;;15.33;48.80;93569.03;5005338;28;20043;-87
2023/01/11 02:08:39;;;;;;;7.75;5.10;;;;;;;15.35;48.96;93569.28;4985155;28;20042;-86
2023/01/11 02:11:28;;;;;;;6.97;5.60;;;;;;;15.33;49.12;93571.75;4986092;28;20049;-86
2023/01/11 02:13:49;;;;;;;6.85;5.35;;;;;;;15.36;49.06;93566.06;5008835;28;20046;-86
2023/01/11 02:16:15;;;;;;;9.85;5.57;;;;;;;15.38;48.66;93571.00;4992236;28;20036;-86
2023/01/11 02:18:41;;;;;;;8.73;5.10;;;;;;;15.36;49.09;93562.59;4992847;28;20041;-86
2023/01/11 02:21:22;;;;;;;9.80;5.70;;;;;;;15.34;48.98;93559.63;4985746;28;20108;-87
2023/01/11 02:23:58;;;;;;;7.80;4.63;;;;;;;15.33;48.83;93555.41;5011252;28;20053;-88
2023/01/11 02:26:46;;;;;;;7.95;5.60;;;;;;;15.34;49.08;93541.31;4991568;28;20033;-86
2023/01/11 02:29:32;;;;;;;6.80;4.72;;;;;;;15.37;48.78;93553.19;4992392;28;20158;-86
2023/01/11 02:32:17;;;;;;;7.43;5.28;;;;;;;15.36;48.68;93547.00;5025594;28;20642;-86
2023/01/11 02:34:54;;;;;;;8.82;4.60;;;;;;;15.34;49.01;93552.19;5013304;28;20041;-86
2023/01/11 02:37:22;;;;;;;10.15;4.95;;;;;;;15.37;48.96;93550.47;5008963;28;20034;-85
2023/01/11 02:39:59;;;;;;;7.60;5.25;;;;;;;15.38;49.03;93538.31;5008660;28;20054;-85
2023/01/11 02:45:36;;;;;;;6.82;5.03;;;;;;;15.32;49.23;93546.50;5010248;28;20219;-85
2023/01/11 02:48:06;;;;;;;7.63;4.68;;;;;;;15.33;48.77;93542.53;5010277;28;20030;-89
2023/01/11 02:50:34;;;;;;;6.78;5.13;;;;;;;15.33;48.94;93550.69;5013784;28;20041;-85
2023/01/11 02:53:21;;;;;;;7.32;5.00;;;;;;;15.36;48.99;93547.00;5010446;28;20045;-86
2023/01/11 02:55:48;;;;;;;5.75;4.35;;;;;;;15.30;49.13;93548.94;5008449;28;20048;-85
2023/01/11 02:58:14;;;;;;;6.82;4.57;;;;;;;15.32;48.65;93551.94;5008400;28;20041;-87
2023/01/11 03:00:40;;;;;;;7.90;5.05;;;;;;;15.31;48.98;93547.72;4992216;28;20060;-86
2023/01/11 03:03:20;;;;;;;6.53;4.45;;;;;;;15.36;48.97;93544.28;5007397;28;20424;-86
2023/01/11 03:06:07;;;;;;;6.25;4.75;;;;;;;15.41;48.55;93546.28;4992105;28;20045;-86
2023/01/11 03:08:49;;;;;;;6.93;4.55;;;;;;;15.38;48.85;93541.03;4978187;28;20061;-86
2023/01/11 03:14:33;;;;;;;7.00;4.47;;;;;;;15.38;48.59;93524.72;5007800;28;20052;-87
2023/01/11 03:17:13;;;;;;;7.18;4.15;;;;;;;15.37;48.87;93529.41;4988842;28;20093;-88
2023/01/11 03:19:58;;;;;;;7.75;4.13;;;;;;;15.34;48.73;93532.38;5031904;28;20034;-87
2023/01/11 03:22:32;;;;;;;7.53;4.13;;;;;;;15.34;48.90;93529.66;4993409;28;20065;-86
2023/01/11 03:25:02;;;;;;;8.52;4.47;;;;;;;15.36;48.99;93525.22;5007713;28;20161;-86
2023/01/11 03:27:52;;;;;;;5.72;4.10;;;;;;;15.35;48.91;93520.25;5007392;28;20617;-85
2023/01/11 03:30:42;;;;;;;6.38;4.00;;;;;;;15.37;48.76;93513.06;5006512;28;20456;-86
2023/01/11 03:33:23;;;;;;;4.60;4.10;;;;;;;15.35;48.55;93509.38;5007304;28;20038;-86
2023/01/11 03:35:48;;;;;;;;;;;;;;;15.41;48.54;93512.84;5008818;28;20073;-91
2023/01/11 03:38:21;;;;;;;5.30;4.28;;;;;;;15.33;48.76;93504.41;5008749;28;19921;-86
2023/01/11 03:40:49;;;;;;;5.25;3.72;;;;;;;15.35;48.61;93501.94;4991271;28;20137;-85
2023/01/11 03:43:15;;;;;;;5.45;3.97;;;;;;;15.33;48.79;93501.69;5007264;28;20034;-86
2023/01/11 03:45:59;;;;;;;5.03;3.80;;;;;;;15.36;48.70;93497.25;5008248;28;20053;-88
2023/01/11 03:48:28;;;;;;;6.18;3.83;;;;;;;15.32;48.67;93494.00;5006545;28;20048;-85
2023/01/11 03:50:54;;;;;;;6.80;4.07;;;;;;;15.35;48.62;93496.50;4991139;28;20052;-86
2023/01/11 03:53:21;;;;;;;4.13;3.40;;;;;;;15.35;49.10;93496.50;5007303;28;20062;-85
2023/01/11 03:55:48;;;;;;;5.80;3.92;;;;;;;15.34;48.70;93505.91;5007150;28;20073;-87
2023/01/11 03:58:13;;;;;;;5.68;3.92;;;;;;;15.36;48.50;93500.72;5006872;28;20133;-87
2023/01/11 04:00:38;;;;;;;4.93;3.60;;;;;;;15.35;48.51;93501.94;5024782;28;20034;-86
2023/01/11 04:03:04;;;;;;;4.80;4.00;;;;;;;15.36;48.68;93506.16;5006777;28;20030;-88
2023/01/11 04:05:29;;;;;;;4.63;3.83;;;;;;;15.35;48.63;93507.38;5007188;28;20061;-85
2023/01/11 04:07:55;;;;;;;4.80;3.80;;;;;;;15.36;48.66;93502.69;4990856;28;20033;-86
2023/01/11 04:10:20;;;;;;;6.30;3.90;;;;;;;15.35;48.55;93503.91;5006870;28;20065;-86
2023/01/11 04:12:47;;;;;;;6.10;3.55;;;;;;;15.34;48.45;93505.16;4991644;28;20037;-87
2023/01/11 04:15:13;;;;;;;6.30;4.30;;;;;;;15.41;48.92;93507.38;4990244;28;20475;-90
2023/01/11 04:17:39;;;;;;;6.53;3.85;;;;;;;15.39;48.68;93498.97;5007028;28;20504;-86
2023/01/11 04:20:05;;;;;;;7.05;3.78;;;;;;;15.38;48.67;93487.31;5007129;28;20088;-86
2023/01/11 04:22:31;;;;;;;4.45;3.40;;;;;;;15.34;48.69;93480.63;4975867;28;20044;-85
2023/01/11 04:24:56;;;;;;;4.47;3.63;;;;;;;15.34;48.83;93488.81;5015354;28;20405;-86
2023/01/11 04:27:21;;;;;;;5.82;3.50;;;;;;;15.32;48.92;93492.03;4994061;28;20409;-86
2023/01/11 04:29:47;;;;;;;6.00;3.35;;;;;;;15.31;48.81;93500.69;4965229;28;20035;-85
2023/01/11 04:32:13;;;;;;;6.45;3.92;;;;;;;15.32;48.74;93488.53;4990171;28;20097;-90
2023/01/11 04:34:39;;;;;;;4.38;3.35;;;;;;;15.34;49.03;93484.09;4969362;28;20038;-86
2023/01/11 04:37:04;;;;;;;5.10;3.40;;;;;;;15.35;48.56;93507.38;4985357;28;20050;-90
2023/01/11 04:39:30;;;;;;;6.32;3.50;;;;;;;15.37;48.52;93502.16;4985197;28;20429;-86
2023/01/11 04:44:39;;;;;;;5.97;3.63;;;;;;;15.37;48.35;93513.06;4976264;28;20080;-86
2023/01/11 04:47:05;;;;;;;4.82;3.55;;;;;;;15.40;48.68;93514.06;4968895;28;20558;-86
2023/01/11 04:49:30;;;;;;;4.82;3.45;;;;;;;15.38;48.55;93500.94;4985253;28;20109;-85
2023/01/11 04:51:55;;;;;;;4.20;3.28;;;;;;;15.38;48.52;93505.63;4985554;28;20046;-86
2023/01/11 04:54:21;;;;;;;5.18;3.28;;;;;;;15.37;48.42;93504.19;4968569;28;20042;-85
2023/01/11 04:56:46;;;;;;;4.85;3.67;;;;;;;15.38;48.78;93502.91;4969636;28;20038;-85
2023/01/11 04:59:12;;;;;;;5.80;3.17;;;;;;;15.39;48.80;93499.72;4984517;28;20520;-86
2023/01/11 05:01:38;;;;;;;4.75;3.33;;;;;;;15.41;48.47;93502.69;4985712;28;20045;-86
2023/01/11 05:04:03;;;;;;;4.30;3.25;;;;;;;15.44;48.43;93506.41;4968660;28;20042;-86
2023/01/11 05:06:29;;;;;;;5.18;3.33;;;;;;;15.48;48.53;93495.28;5005571;28;20126;-86
2023/01/11 05:08:54;;;;;;;5.35;3.35;;;;;;;15.41;48.48;93502.69;5005773;28;20042;-86
2023/01/11 05:11:20;;;;;;;4.55;3.10;;;;;;;15.38;48.41;93497.47;5006154;28;20045;-86
2023/01/11 05:13:45;;;;;;;5.35;3.30;;;;;;;15.40;48.51;93503.19;5003050;28;20483;-85
2023/01/11 05:16:12;;;;;;;3.92;2.88;;;;;;;15.40;48.52;93498.47;5004814;28;20050;-87
2023/01/11 05:18:41;;;;;;;4.10;2.75;;;;;;;15.37;48.22;93499.44;5006061;28;20069;-85
2023/01/11 05:21:07;;;;;;;7.20;2.97;;;;;;;15.37;48.25;93493.28;4989424;28;20046;-89
2023/01/11 05:23:35;;;;;;;5.80;3.83;;;;;;;15.33;48.18;93488.06;5006788;28;20449;-85
2023/01/11 05:26:07;;;;;;;7.47;4.07;;;;;;;15.32;48.70;93485.81;4975243;28;20056;-87
2023/01/11 05:28:33;;;;;;;9.45;4.18;;;;;;;15.31;48.61;93476.16;4977727;28;20030;-87
2023/01/11 05:30:58;;;;;;;5.63;3.53;;;;;;;15.29;48.63;93482.09;5007274;28;20452;-87
2023/01/11 05:33:24;;;;;;;8.48;3.97;;;;;;;15.35;48.99;93482.13;5025206;28;20038;-89
2023/01/11 05:35:49;;;;;;;8.35;4.00;;;;;;;15.43;48.49;93480.41;4992070;28;20042;-92
2023/01/11 05:38:15;;;;;;;9.52;4.00;;;;;;;15.48;48.53;93476.97;5008668;28;20030;-88
2023/01/11 05:40:40;;;;;;;7.68;3.83;;;;;;;15.56;48.83;93488.19;5008651;28;20137;-91
2023/01/11 05:43:06;;;;;;;8.73;5.65;;;;;;;15.62;48.29;93478.03;5010831;28;20448;-88
2023/01/11 05:45:32;;;;;;;6.72;4.15;;;;;;;15.58;48.75;93474.81;5006776;28;20037;-89
2023/01/11 05:47:58;;;;;;;8.98;4.30;;;;;;;15.55;48.30;93494.84;4993377;28;20030;-88
2023/01/11 05:50:24;;;;;;;13.05;6.93;;;;;;;15.54;48.27;93485.16;5008656;28;20093;-87
2023/01/11 05:52:49;;;;;;;20.85;7.43;;;;;;;15.52;48.42;93476.75;5011838;28;20142;-89
2023/01/11 05:55:15;;;;;;;49.40;13.95;;;;;;;15.56;48.22;93485.44;4986230;28;20073;-86
2023/01/11 05:57:41;;;;;;;58.38;16.70;;;;;;;15.60;48.13;93480.50;5013741;28;20043;-90
2023/01/11 06:00:07;;;;;;;122.10;29.60;;;;;;;15.55;47.74;93479.22;5014732;28;20453;-88
2023/01/11 06:02:33;;;;;;;29.83;15.95;;;;;;;15.53;47.22;93475.50;4995958;28;20042;-88
2023/01/11 06:04:59;;;;;;;62.47;22.95;;;;;;;15.51;47.38;93472.53;5028891;28;20060;-82
2023/01/11 06:07:24;;;;;;;81.90;27.85;;;;;;;15.48;47.97;93476.22;4973198;28;20117;-87
2023/01/11 06:09:50;;;;;;;64.15;28.38;;;;;;;15.55;47.65;93470.31;4980588;28;20482;-90
2023/01/11 06:12:16;;;;;;;83.88;32.45;;;;;;;15.60;47.79;93475.03;4999710;28;20042;-90
2023/01/11 06:14:42;;;;;;;82.95;31.02;;;;;;;15.54;47.34;93472.28;4995983;28;20168;-90
2023/01/11 06:17:07;;;;;;;80.25;29.70;;;;;;;15.55;47.49;93473.78;4978909;28;20501;-90
2023/01/11 06:19:33;;;;;;;80.35;31.08;;;;;;;15.50;47.50;93477.22;5011027;28;20921;-90
2023/01/11 06:21:58;;;;;;;104.55;35.38;;;;;;;15.37;45.54;93474.94;4980696;28;20087;-90
2023/01/11 06:24:24;;;;;;;100.50;23.85;;;;;;;15.25;42.84;93467.97;5005830;28;20088;-90
2023/01/11 06:26:52;;;;;;;34.22;12.20;;;;;;;15.06;41.03;93481.25;4995875;28;20046;-89
2023/01/11 06:29:17;;;;;;;126.47;26.20;;;;;;;15.09;41.31;93480.28;4987992;28;20091;-90
2023/01/11 06:31:45;;;;;;;95.80;27.88;;;;;;;15.22;42.24;93481.81;4981765;28;20497;-91
2023/01/11 06:34:11;;;;;;;138.32;44.63;;;;;;;15.21;43.43;93478.34;5023650;28;20042;-91
2023/01/11 06:36:38;;;;;;;119.88;34.00;;;;;;;15.17;44.53;93474.34;4993225;28;20400;-92
2023/01/11 06:39:06;;;;;;;102.03;35.67;;;;;;;15.22;44.41;93477.09;4997081;28;20087;-95
2023/01/11 06:41:31;;;;;;;92.30;40.10;;;;;;;15.21;45.43;93463.97;5011532;28;20042;-92
2023/01/11 06:43:56;;;;;;;115.60;46.78;;;;;;;15.23;45.16;93459.53;4999172;28;20124;-91
2023/01/11 06:46:22;;;;;;;119.65;47.30;;;;;;;15.22;45.15;93465.47;4998753;28;20049;-91
2023/01/11 06:48:48;;;;;;;120.05;59.63;;;;;;;15.31;45.29;93463.28;4998017;28;20056;-92
2023/01/11 06:51:13;;;;;;;173.27;74.55;;;;;;;15.22;45.79;93466.22;4956039;28;20050;-92
2023/01/11 06:53:39;;;;;;;139.20;65.32;;;;;;;15.26;45.33;93471.44;4989183;28;20086;-87
2023/01/11 06:56:05;;;;;;;155.35;72.68;;;;;;;15.35;45.48;93471.97;5015117;28;20053;-87
2023/01/11 06:58:31;;;;;;;161.73;80.00;;;;;;;15.30;45.33;93480.88;5017746;28;20098;-89
2023/01/11 07:00:56;;;;;;;166.35;84.75;;;;;;;15.30;45.42;93482.84;5011060;28;20041;-88
2023/01/11 07:03:24;;;;;;;165.95;82.55;;;;;;;15.34;45.28;93489.56;5017016;28;20457;-90
2023/01/11 07:05:52;;;;;;;214.35;106.18;;;;;;;15.37;45.53;93482.38;5008993;28;20037;-88
2023/01/11 07:08:17;;;;;;;217.50;109.60;;;;;;;15.38;45.46;93483.84;4997774;28;20551;-88
2023/01/11 07:10:44;;;;;;;210.65;103.55;;;;;;;15.55;45.73;93492.09;5009073;28;20057;-87
2023/01/11 07:13:15;;;;;;;195.88;98.53;;;;;;;15.51;45.63;93486.88;4993644;28;20034;-86
2023/01/11 07:15:40;;;;;;;;;;;;;;;15.51;45.42;93486.88;4995464;28;20072;-86
2023/01/11 07:18:05;;;;;;;183.20;93.18;;;;;;;15.55;45.50;93492.84;5005125;28;19965;-85
2023/01/11 07:20:31;;;;;;;170.73;90.60;;;;;;;15.55;45.74;93481.94;5010188;28;20125;-88
2023/01/11 07:22:58;;;;;;;160.15;84.32;;;;;;;15.51;45.61;93489.63;5005918;28;20042;-88
2023/01/11 07:25:24;;;;;;;148.38;80.05;;;;;;;15.58;45.46;93483.72;5016602;28;20054;-87
2023/01/11 07:27:57;;;;;;;139.52;78.10;;;;;;;15.57;45.52;93474.06;5013855;28;20042;-88
2023/01/11 07:30:23;;;;;;;160.15;80.97;;;;;;;15.63;45.61;93471.34;4991244;28;20109;-87
2023/01/11 07:32:49;;;;;;;148.45;77.57;;;;;;;15.59;45.59;93471.56;4985446;28;20034;-88
2023/01/11 07:35:14;;;;;;;165.20;80.05;;;;;;;15.59;45.38;93471.56;5009404;28;20057;-89
2023/01/11 07:37:40;;;;;;;154.30;80.00;;;;;;;15.56;45.60;93474.56;5007808;28;20049;-87
2023/01/11 07:40:06;;;;;;;146.75;76.82;;;;;;;15.62;45.76;93481.50;4973929;28;20564;-86
2023/01/11 07:45:15;;;;;;;179.80;76.88;;;;;;;15.61;45.60;93482.72;5020328;28;20045;-88
2023/01/11 07:47:41;;;;;;;171.88;76.22;;;;;;;15.57;45.75;93479.53;5004750;28;20050;-88
2023/01/11 07:50:07;;;;;;;186.15;77.70;;;;;;;15.53;45.87;93484.41;4995715;28;20038;-85
2023/01/11 07:52:32;;;;;;;156.52;71.50;;;;;;;15.55;46.04;93481.94;5007886;28;20034;-85
2023/01/11 07:55:01;;;;;;;155.13;71.05;;;;;;;15.56;45.74;93493.63;5019639;28;20683;-90
2023/01/11 07:57:27;;;;;;;144.02;71.55;;;;;;;15.54;45.79;93491.38;5005822;28;20070;-87
2023/01/11 07:59:53;;;;;;;156.75;68.78;;;;;;;15.57;46.05;93487.69;4991452;28;20163;-87
2023/01/11 08:02:19;;;;;;;161.93;67.18;;;;;;;15.57;46.17;93489.66;4993743;28;20038;-88
2023/01/11 08:04:44;;;;;;;135.23;64.10;;;;;;;15.61;46.07;93488.19;5007290;28;20055;-90
2023/01/11 08:07:09;;;;;;;149.90;64.80;;;;;;;15.60;45.94;93483.22;4992437;28;20058;-88
2023/01/11 08:09:35;;;;;;;143.73;64.03;;;;;;;15.63;46.14;93485.72;5008737;28;20042;-88
2023/01/11 08:14:44;;;;;;;205.93;64.25;;;;;;;15.61;45.94;93490.91;4997030;28;20057;-87
2023/01/11 08:17:12;;;;;;;134.02;65.35;;;;;;;15.62;45.88;93486.19;4997360;28;20046;-92
2023/01/11 08:19:38;;;;;;;146.65;68.35;;;;;;;15.60;46.48;93480.50;4996631;28;20044;-87
2023/01/11 08:22:05;;;;;;;158.07;62.90;;;;;;;15.62;46.30;93478.78;5005437;28;20051;-90
2023/01/11 08:24:30;;;;;;;155.02;66.93;;;;;;;15.67;45.93;93483.50;4992083;28;20037;-87
2023/01/11 08:26:56;;;;;;;143.18;67.95;;;;;;;15.68;46.10;93481.53;4991477;28;20033;-89
2023/01/11 08:29:22;;;;;;;149.10;69.60;;;;;;;15.67;45.82;93478.03;5004709;28;20065;-88
2023/01/11 08:31:47;;;;;;;166.13;83.78;;;;;;;15.68;46.24;93481.53;4992249;28;20060;-91
2023/01/11 08:34:14;;;;;;;215.30;98.80;;;;;;;15.68;46.06;93478.78;4998958;28;20034;-88
2023/01/11 08:36:41;;;;;;;227.70;110.47;;;;;;;15.65;46.33;93475.06;4989461;28;20052;-90
2023/01/11 08:39:07;;;;;;;188.65;85.18;;;;;;;15.72;46.24;93473.84;5036983;28;20037;-92
2023/01/11 08:41:32;;;;;;;214.50;99.75;;;;;;;15.70;46.23;93465.44;5002054;28;20112;-91
2023/01/11 08:43:58;;;;;;;201.10;95.20;;;;;;;15.69;46.45;93475.59;5026620;28;20398;-90
2023/01/11 08:46:23;;;;;;;173.98;81.47;;;;;;;15.66;46.39;93473.09;4993560;28;20500;-89
2023/01/11 08:48:49;;;;;;;176.43;81.93;;;;;;;15.70;46.25;93476.31;5018552;28;20129;-88
2023/01/11 08:51:14;;;;;;;165.95;82.55;;;;;;;15.69;46.57;93472.09;4974793;28;20057;-88
2023/01/11 08:53:40;;;;;;;167.07;82.90;;;;;;;15.64;46.30;93470.09;5001679;28;20050;-87
2023/01/11 08:56:06;;;;;;;172.98;81.63;;;;;;;15.63;46.27;93474.81;5007667;28;20038;-90
2023/01/11 08:58:31;;;;;;;155.13;80.70;;;;;;;15.67;46.51;93471.84;4986396;28;20400;-84
2023/01/11 09:00:58;;;;;;;167.23;76.95;;;;;;;15.71;46.19;93466.91;5007088;28;20497;-87
2023/01/11 09:03:24;;;;;;;146.38;74.47;;;;;;;15.68;46.53;93462.44;5012620;28;20034;-85
2023/01/11 09:05:50;;;;;;;204.75;100.80;;;;;;;15.68;46.48;93459.72;4999418;28;20115;-90
2023/01/11 09:08:16;;;;;;;190.57;100.72;;;;;;;15.68;46.60;93471.38;4996066;28;20580;-87
2023/01/11 09:10:41;;;;;;;180.10;96.65;;;;;;;15.69;46.84;93470.13;5020293;28;20119;-87
2023/01/11 09:13:08;;;;;;;219.57;113.63;;;;;;;15.69;46.37;93464.69;5001952;28;20046;-88
2023/01/11 09:15:33;;;;;;;187.93;94.38;;;;;;;15.69;46.34;93466.66;5024108;28;20050;-88
2023/01/11 09:18:01;;;;;;;171.65;84.43;;;;;;;15.72;46.35;93469.16;5009883;28;20100;-87
2023/01/11 09:20:27;;;;;;;170.43;88.70;;;;;;;15.74;46.69;93463.22;5017485;28;20478;-86
2023/01/11 09:22:53;;;;;;;167.52;85.68;;;;;;;15.68;46.58;93457.75;5003871;28;20062;-85
2023/01/11 09:25:19;;;;;;;172.30;87.22;;;;;;;15.70;46.38;93449.06;5025339;28;20038;-88
2023/01/11 09:27:45;;;;;;;174.90;89.82;;;;;;;15.73;46.37;93453.53;4976417;28;20042;-89
2023/01/11 09:30:11;;;;;;;168.25;86.10;;;;;;;15.71;46.55;93458.75;4993680;28;20050;-88
2023/01/11 09:32:38;;;;;;;163.30;87.93;;;;;;;15.76;46.60;93466.19;5004872;28;20078;-89
2023/01/11 09:35:04;;;;;;;172.35;89.78;;;;;;;15.75;46.48;93465.44;5006464;28;20042;-88
2023/01/11 09:37:30;;;;;;;173.60;90.22;;;;;;;15.71;46.80;93464.19;4996252;28;20038;-87
2023/01/11 09:39:58;;;;;;;157.60;83.05;;;;;;;15.70;46.77;93463.44;5029232;28;20042;-84
2023/01/11 09:42:38;;;;;;;179.32;86.15;;;;;;;15.71;46.85;93461.47;4991930;28;20145;-87
2023/01/11 09:45:11;;;;;;;194.67;87.27;;;;;;;15.77;46.67;93457.53;4990651;28;20043;-88
2023/01/11 09:48:11;;;;;;;163.70;79.50;;;;;;;15.75;46.77;93453.78;5010756;28;20378;-87
2023/01/11 09:50:42;;;;;;;271.88;97.88;;;;;;;15.72;46.75;93454.78;4993433;28;20374;-87
2023/01/11 09:53:12;;;;;;;170.85;86.32;;;;;;;15.74;46.83;93444.88;5000216;28;20081;-88
2023/01/11 09:55:48;;;;;;;173.32;86.40;;;;;;;15.71;46.50;93456.75;5003585;28;20040;-87
2023/01/11 09:58:52;;;;;;;213.00;99.43;;;;;;;15.72;46.44;93452.06;4977824;28;20098;-89
2023/01/11 10:01:28;;;;;;;179.63;84.18;;;;;;;15.62;46.60;93456.97;5016120;28;20042;-88
2023/01/11 10:04:02;;;;;;;171.05;82.40;;;;;;;15.64;46.25;93438.16;5009819;28;20046;-86
2023/01/11 10:06:46;;;;;;;215.23;101.70;;;;;;;15.67;46.60;93439.16;4994050;28;20057;-89
2023/01/11 10:09:22;;;;;;;226.65;104.57;;;;;;;15.67;46.46;93428.25;5009898;28;20042;-89
2023/01/11 10:12:16;;;;;;;222.10;111.85;;;;;;;15.67;47.02;93428.25;5011706;28;20068;-88
2023/01/11 10:14:47;;;;;;;222.95;109.95;;;;;;;15.71;46.98;93415.88;5019949;28;20589;-86
2023/01/11 10:17:53;;;;;;;243.25;107.53;;;;;;;15.70;47.13;93421.81;5001980;28;20073;-89
2023/01/11 10:20:26;;;;;;;239.05;110.22;;;;;;;15.77;46.53;93413.16;4995957;28;20580;-89
2023/01/11 10:22:57;;;;;;;217.13;106.10;;;;;;;15.75;47.06;93408.22;5011991;28;20337;-91
2023/01/11 10:25:33;;;;;;;227.32;103.47;;;;;;;15.75;47.18;93407.47;5030890;28;20509;-88
2023/01/11 10:28:03;;;;;;;214.43;100.35;;;;;;;15.79;46.92;93391.63;4996055;28;20500;-89
2023/01/11 10:33:27;;;;;;;198.20;96.55;;;;;;;15.80;46.84;93392.38;5012486;28;20406;-88
2023/01/11 10:39:46;;;;;;;206.43;96.50;;;;;;;15.82;46.82;93403.50;4996855;28;20044;-87
2023/01/11 10:42:09;;;;;;;212.60;97.95;;;;;;;15.82;46.95;93392.59;5009381;28;20132;-87
2023/01/11 10:44:41;;;;;;;244.85;101.63;;;;;;;15.82;47.04;93392.59;5003390;28;20049;-84
2023/01/11 10:47:15;;;;;;;207.15;94.97;;;;;;;15.81;47.07;93394.56;5019610;28;20065;-85
2023/01/11 10:50:01;;;;;;;245.32;99.05;;;;;;;15.82;47.24;93379.72;4975816;28;20046;-87
2023/01/11 10:52:45;;;;;;;231.18;102.80;;;;;;;15.84;47.09;93377.22;5011919;28;20053;-89
2023/01/11 10:55:13;;;;;;;330.90;118.90;;;;;;;15.75;47.22;93377.50;5015548;28;20099;-86
2023/01/11 10:57:46;;;;;;;263.67;104.93;;;;;;;15.68;47.26;93372.50;5009521;28;20056;-86
2023/01/11 11:00:35;;;;;;;250.40;95.18;;;;;;;15.73;46.94;93356.19;5013921;28;20038;-88
2023/01/11 11:03:36;;;;;;;259.48;112.38;;;;;;;15.74;46.88;93365.09;5009440;28;20095;-90
2023/01/11 11:06:06;;;;;;;;;;;;;;;15.77;47.12;93355.94;5022329;28;20114;-87
2023/01/11 11:08:52;;;;;;;230.63;107.80;;;;;;;15.73;47.57;93356.19;5027580;28;19924;-86
2023/01/11 11:11:26;;;;;;;211.32;107.78;;;;;;;15.76;47.48;93355.19;4989438;28;20543;-84
2023/01/11 11:14:09;;;;;;;257.45;105.00;;;;;;;15.77;47.48;93345.78;4999864;28;20045;-86
2023/01/11 11:16:49;;;;;;;219.45;99.35;;;;;;;15.76;47.29;93349.00;5021916;28;20049;-86
2023/01/11 11:19:16;;;;;;;191.07;95.10;;;;;;;15.74;47.66;93335.88;5011779;28;20042;-87
2023/01/11 11:21:42;;;;;;;189.88;90.18;;;;;;;15.79;47.43;93336.38;5000064;28;20056;-89
2023/01/11 11:24:18;;;;;;;183.30;89.00;;;;;;;15.84;47.08;93333.63;4993200;28;20054;-90
2023/01/11 11:26:52;;;;;;;188.63;86.43;;;;;;;15.86;47.79;93320.25;5008113;28;20382;-90
2023/01/11 11:29:21;;;;;;;160.00;82.03;;;;;;;15.84;47.73;93327.44;5014387;28;20042;-90
2023/01/11 11:31:47;;;;;;;147.48;77.60;;;;;;;15.84;47.16;93320.00;5010940;28;20054;-88
2023/01/11 11:34:15;;;;;;;150.15;79.03;;;;;;;15.88;47.46;93314.28;5007855;28;20034;-90
2023/01/11 11:36:45;;;;;;;151.52;74.28;;;;;;;15.90;47.26;93317.28;5010999;28;20030;-91
2023/01/11 11:39:18;;;;;;;138.68;71.05;;;;;;;15.91;47.73;93313.31;5018517;28;20038;-91
2023/01/11 11:41:46;;;;;;;125.80;68.95;;;;;;;15.95;47.40;93313.81;5003438;28;20374;-88
2023/01/11 11:44:20;;;;;;;134.18;68.35;;;;;;;15.97;47.27;93308.59;4980713;28;20038;-89
2023/01/11 11:47:05;;;;;;;123.53;65.82;;;;;;;15.99;47.78;93301.41;5024512;28;20065;-85
2023/01/11 11:49:32;;;;;;;115.90;62.97;;;;;;;15.99;47.21;93298.69;5003449;28;20194;-83
2023/01/11 11:52:02;;;;;;;112.72;58.83;;;;;;;15.99;46.96;93293.22;5015667;28;20042;-83
2023/01/11 11:54:34;;;;;;;91.65;44.17;;;;;;;15.82;46.96;93289.00;5006055;28;20038;-84
2023/01/11 11:57:26;;;;;;;112.90;50.92;;;;;;;15.80;47.13;93286.81;4989877;28;20042;-84
2023/01/11 12:00:00;;;;;;;89.65;46.85;;;;;;;15.85;47.16;93280.59;4990057;28;20133;-86
2023/01/11 12:02:28;;;;;;;92.18;48.97;;;;;;;15.83;47.57;93276.88;5006326;28;20042;-84